sensor_id;sensor_type;location;lat;lon;timestamp;temperature;humidity
9971;DHT22;5026;51.494;11.974;2023-03-14T00:01:34;11.50;99.90
9971;DHT22;5026;51.494;11.974;2023-03-14T00:04:00;11.50;99.90
9971;DHT22;5026;51.494;11.974;2023-03-14T00:06:31;11.50;99.90
9971;DHT22;5026;51.494;11.974;2023-03-14T00:08:58;11.50;99.90
9971;DHT22;5026;51.494;11.974;2023-03-14T00:11:26;11.60;99.90
9971;DHT22;5026;51.494;11.974;2023-03-14T00:13:53;11.50;99.90
9971;DHT22;5026;51.494;11.974;2023-03-14T00:16:20;11.50;99.90
9971;DHT22;5026;51.494;11.974;2023-03-14T00:18:47;11.50;99.90
9971;DHT22;5026;51.494;11.974;2023-03-14T00:21:14;11.50;99.90
9971;DHT22;5026;51.494;11.974;2023-03-14T00:23:43;11.40;99.90
9971;DHT22;5026;51.494;11.974;2023-03-14T00:26:11;11.40;99.90
9971;DHT22;5026;51.494;11.974;2023-03-14T00:28:39;11.50;99.90
9971;DHT22;5026;51.494;11.974;2023-03-14T00:31:07;11.50;99.90
9971;DHT22;5026;51.494;11.974;2023-03-14T00:33:35;11.40;99.90
9971;DHT22;5026;51.494;11.974;2023-03-14T00:36:04;11.40;99.90
9971;DHT22;5026;51.494;11.974;2023-03-14T00:38:32;11.30;99.90
9971;DHT22;5026;51.494;11.974;2023-03-14T00:41:03;11.30;99.90
9971;DHT22;5026;51.494;11.974;2023-03-14T00:43:30;11.30;99.90
9971;DHT22;5026;51.494;11.974;2023-03-14T00:45:57;11.30;99.90
9971;DHT22;5026;51.494;11.974;2023-03-14T00:48:24;11.30;99.90
9971;DHT22;5026;51.494;11.974;2023-03-14T00:50:51;11.20;99.90
9971;DHT22;5026;51.494;11.974;2023-03-14T00:53:18;11.30;99.90
9971;DHT22;5026;51.494;11.974;2023-03-14T00:55:45;11.30;99.90
9971;DHT22;5026;51.494;11.974;2023-03-14T00:58:15;11.20;99.90
9971;DHT22;5026;51.494;11.974;2023-03-14T01:00:42;11.20;99.90
9971;DHT22;5026;51.494;11.974;2023-03-14T01:03:10;11.20;99.90
9971;DHT22;5026;51.494;11.974;2023-03-14T01:05:38;11.20;99.90
9971;DHT22;5026;51.494;11.974;2023-03-14T01:08:06;11.20;99.90
9971;DHT22;5026;51.494;11.974;2023-03-14T01:10:33;11.20;99.90
9971;DHT22;5026;51.494;11.974;2023-03-14T01:13:01;11.20;99.90
9971;DHT22;5026;51.494;11.974;2023-03-14T01:15:31;11.40;99.90
9971;DHT22;5026;51.494;11.974;2023-03-14T01:17:58;11.10;99.90
9971;DHT22;5026;51.494;11.974;2023-03-14T01:20:25;11.10;99.90
9971;DHT22;5026;51.494;11.974;2023-03-14T01:22:52;11.10;99.90
9971;DHT22;5026;51.494;11.974;2023-03-14T01:25:19;11.00;99.90
9971;DHT22;5026;51.494;11.974;2023-03-14T01:27:46;11.10;99.90
9971;DHT22;5026;51.494;11.974;2023-03-14T01:30:13;11.00;99.90
9971;DHT22;5026;51.494;11.974;2023-03-14T01:32:41;10.90;99.90
9971;DHT22;5026;51.494;11.974;2023-03-14T01:35:09;11.00;99.90
9971;DHT22;5026;51.494;11.974;2023-03-14T01:37:35;11.10;99.90
9971;DHT22;5026;51.494;11.974;2023-03-14T01:40:03;11.10;99.90
9971;DHT22;5026;51.494;11.974;2023-03-14T01:42:31;11.20;99.90
9971;DHT22;5026;51.494;11.974;2023-03-14T01:45:00;11.30;99.90
9971;DHT22;5026;51.494;11.974;2023-03-14T01:47:27;11.30;99.90
9971;DHT22;5026;51.494;11.974;2023-03-14T01:49:57;11.30;99.90
9971;DHT22;5026;51.494;11.974;2023-03-14T01:52:29;11.40;99.90
9971;DHT22;5026;51.494;11.974;2023-03-14T01:55:02;11.40;99.90
9971;DHT22;5026;51.494;11.974;2023-03-14T01:57:32;11.50;99.90
9971;DHT22;5026;51.494;11.974;2023-03-14T02:00:03;11.50;99.90
9971;DHT22;5026;51.494;11.974;2023-03-14T02:02:35;11.50;99.90
9971;DHT22;5026;51.494;11.974;2023-03-14T02:05:04;11.60;99.90
9971;DHT22;5026;51.494;11.974;2023-03-14T02:07:36;11.40;99.90
9971;DHT22;5026;51.494;11.974;2023-03-14T02:10:05;11.40;99.90
9971;DHT22;5026;51.494;11.974;2023-03-14T02:12:33;11.30;99.90
9971;DHT22;5026;51.494;11.974;2023-03-14T02:15:01;11.30;99.90
9971;DHT22;5026;51.494;11.974;2023-03-14T02:17:28;11.30;99.90
9971;DHT22;5026;51.494;11.974;2023-03-14T02:20:13;11.30;99.90
9971;DHT22;5026;51.494;11.974;2023-03-14T02:22:42;11.30;99.90
9971;DHT22;5026;51.494;11.974;2023-03-14T02:25:14;11.30;99.90
9971;DHT22;5026;51.494;11.974;2023-03-14T02:27:45;11.30;99.90
9971;DHT22;5026;51.494;11.974;2023-03-14T02:30:15;11.30;99.90
9971;DHT22;5026;51.494;11.974;2023-03-14T02:32:45;12.00;99.90
9971;DHT22;5026;51.494;11.974;2023-03-14T02:35:15;11.20;99.90
9971;DHT22;5026;51.494;11.974;2023-03-14T02:37:47;11.20;99.90
9971;DHT22;5026;51.494;11.974;2023-03-14T02:40:15;11.00;99.90
9971;DHT22;5026;51.494;11.974;2023-03-14T02:42:43;11.00;99.90
9971;DHT22;5026;51.494;11.974;2023-03-14T02:45:35;10.90;99.90
9971;DHT22;5026;51.494;11.974;2023-03-14T02:48:05;10.90;99.90
9971;DHT22;5026;51.494;11.974;2023-03-14T02:50:34;10.80;99.90
9971;DHT22;5026;51.494;11.974;2023-03-14T02:53:01;10.90;99.90
9971;DHT22;5026;51.494;11.974;2023-03-14T02:55:28;10.90;99.90
9971;DHT22;5026;51.494;11.974;2023-03-14T02:57:56;10.90;99.90
9971;DHT22;5026;51.494;11.974;2023-03-14T03:00:23;11.00;99.90
9971;DHT22;5026;51.494;11.974;2023-03-14T03:02:50;11.10;99.90
9971;DHT22;5026;51.494;11.974;2023-03-14T03:05:17;11.20;99.90
9971;DHT22;5026;51.494;11.974;2023-03-14T03:07:44;11.20;99.90
9971;DHT22;5026;51.494;11.974;2023-03-14T03:10:11;11.20;99.90
9971;DHT22;5026;51.494;11.974;2023-03-14T03:12:38;11.20;99.90
9971;DHT22;5026;51.494;11.974;2023-03-14T03:15:07;11.20;99.90
9971;DHT22;5026;51.494;11.974;2023-03-14T03:17:34;11.20;99.90
9971;DHT22;5026;51.494;11.974;2023-03-14T03:20:01;11.20;99.90
9971;DHT22;5026;51.494;11.974;2023-03-14T03:22:29;11.20;99.90
9971;DHT22;5026;51.494;11.974;2023-03-14T03:24:56;11.10;99.90
9971;DHT22;5026;51.494;11.974;2023-03-14T03:27:23;11.10;99.90
9971;DHT22;5026;51.494;11.974;2023-03-14T03:29:50;11.10;99.90
9971;DHT22;5026;51.494;11.974;2023-03-14T03:32:18;11.10;99.90
9971;DHT22;5026;51.494;11.974;2023-03-14T03:34:45;11.10;99.90
9971;DHT22;5026;51.494;11.974;2023-03-14T03:37:12;11.10;99.90
9971;DHT22;5026;51.494;11.974;2023-03-14T03:39:39;11.10;99.90
9971;DHT22;5026;51.494;11.974;2023-03-14T03:42:06;11.10;99.90
9971;DHT22;5026;51.494;11.974;2023-03-14T03:44:32;11.10;99.90
9971;DHT22;5026;51.494;11.974;2023-03-14T03:46:59;11.00;99.90
9971;DHT22;5026;51.494;11.974;2023-03-14T03:49:30;11.00;99.90
9971;DHT22;5026;51.494;11.974;2023-03-14T03:51:57;11.00;99.90
9971;DHT22;5026;51.494;11.974;2023-03-14T03:54:24;10.90;99.90
9971;DHT22;5026;51.494;11.974;2023-03-14T03:56:51;11.00;99.90
9971;DHT22;5026;51.494;11.974;2023-03-14T03:59:18;11.10;99.90
9971;DHT22;5026;51.494;11.974;2023-03-14T04:01:45;10.90;99.90
9971;DHT22;5026;51.494;11.974;2023-03-14T04:04:12;10.90;99.90
9971;DHT22;5026;51.494;11.974;2023-03-14T04:06:41;10.90;99.90
9971;DHT22;5026;51.494;11.974;2023-03-14T04:09:08;10.90;99.90
9971;DHT22;5026;51.494;11.974;2023-03-14T04:11:35;10.90;99.90
9971;DHT22;5026;51.494;11.974;2023-03-14T04:14:02;10.90;99.90
9971;DHT22;5026;51.494;11.974;2023-03-14T04:16:29;12.30;99.90
9971;DHT22;5026;51.494;11.974;2023-03-14T04:18:57;11.00;99.90
9971;DHT22;5026;51.494;11.974;2023-03-14T04:21:24;11.00;99.90
9971;DHT22;5026;51.494;11.974;2023-03-14T04:23:52;11.10;99.90
9971;DHT22;5026;51.494;11.974;2023-03-14T04:26:19;11.10;99.90
9971;DHT22;5026;51.494;11.974;2023-03-14T04:28:46;11.20;99.90
9971;DHT22;5026;51.494;11.974;2023-03-14T04:31:15;11.20;99.90
9971;DHT22;5026;51.494;11.974;2023-03-14T04:33:42;11.20;99.90
9971;DHT22;5026;51.494;11.974;2023-03-14T04:36:09;11.20;99.90
9971;DHT22;5026;51.494;11.974;2023-03-14T04:38:36;11.20;99.90
9971;DHT22;5026;51.494;11.974;2023-03-14T04:41:05;11.10;99.90
9971;DHT22;5026;51.494;11.974;2023-03-14T04:43:32;11.10;99.90
9971;DHT22;5026;51.494;11.974;2023-03-14T04:45:59;11.20;99.90
9971;DHT22;5026;51.494;11.974;2023-03-14T04:48:27;11.00;99.90
9971;DHT22;5026;51.494;11.974;2023-03-14T04:50:54;11.00;99.90
9971;DHT22;5026;51.494;11.974;2023-03-14T04:53:21;11.00;99.90
9971;DHT22;5026;51.494;11.974;2023-03-14T04:55:48;11.50;99.90
9971;DHT22;5026;51.494;11.974;2023-03-14T04:58:18;11.00;99.90
9971;DHT22;5026;51.494;11.974;2023-03-14T05:00:45;11.00;99.90
9971;DHT22;5026;51.494;11.974;2023-03-14T05:03:13;11.00;99.90
9971;DHT22;5026;51.494;11.974;2023-03-14T05:05:41;10.90;99.90
9971;DHT22;5026;51.494;11.974;2023-03-14T05:08:08;9.60;99.90
9971;DHT22;5026;51.494;11.974;2023-03-14T05:10:34;10.90;99.90
9971;DHT22;5026;51.494;11.974;2023-03-14T05:13:02;10.90;99.90
9971;DHT22;5026;51.494;11.974;2023-03-14T05:15:30;10.90;99.90
9971;DHT22;5026;51.494;11.974;2023-03-14T05:17:57;10.80;99.90
9971;DHT22;5026;51.494;11.974;2023-03-14T05:20:24;10.80;99.90
9971;DHT22;5026;51.494;11.974;2023-03-14T05:22:51;10.70;99.90
9971;DHT22;5026;51.494;11.974;2023-03-14T05:25:18;10.80;99.90
9971;DHT22;5026;51.494;11.974;2023-03-14T05:27:45;10.70;99.90
9971;DHT22;5026;51.494;11.974;2023-03-14T05:30:12;10.70;99.90
9971;DHT22;5026;51.494;11.974;2023-03-14T05:32:40;10.70;99.90
9971;DHT22;5026;51.494;11.974;2023-03-14T05:35:08;10.70;99.90
9971;DHT22;5026;51.494;11.974;2023-03-14T05:37:35;10.70;99.90
9971;DHT22;5026;51.494;11.974;2023-03-14T05:40:02;10.60;99.90
9971;DHT22;5026;51.494;11.974;2023-03-14T05:42:30;10.60;99.90
9971;DHT22;5026;51.494;11.974;2023-03-14T05:44:57;10.60;99.90
9971;DHT22;5026;51.494;11.974;2023-03-14T05:47:24;11.20;99.90
9971;DHT22;5026;51.494;11.974;2023-03-14T05:49:52;11.60;99.90
9971;DHT22;5026;51.494;11.974;2023-03-14T05:52:19;10.60;99.90
9971;DHT22;5026;51.494;11.974;2023-03-14T05:54:46;10.60;99.90
9971;DHT22;5026;51.494;11.974;2023-03-14T05:57:13;10.50;99.90
9971;DHT22;5026;51.494;11.974;2023-03-14T05:59:40;10.70;99.90
9971;DHT22;5026;51.494;11.974;2023-03-14T06:02:07;10.80;99.90
9971;DHT22;5026;51.494;11.974;2023-03-14T06:04:34;10.90;99.90
9971;DHT22;5026;51.494;11.974;2023-03-14T06:07:02;10.90;99.90
9971;DHT22;5026;51.494;11.974;2023-03-14T06:09:29;11.00;99.90
9971;DHT22;5026;51.494;11.974;2023-03-14T06:11:56;11.10;99.90
9971;DHT22;5026;51.494;11.974;2023-03-14T06:14:22;11.10;99.90
9971;DHT22;5026;51.494;11.974;2023-03-14T06:16:49;11.20;99.90
9971;DHT22;5026;51.494;11.974;2023-03-14T06:19:16;11.20;99.90
9971;DHT22;5026;51.494;11.974;2023-03-14T06:21:43;11.10;99.90
9971;DHT22;5026;51.494;11.974;2023-03-14T06:24:12;11.10;99.90
9971;DHT22;5026;51.494;11.974;2023-03-14T06:26:39;11.10;99.90
9971;DHT22;5026;51.494;11.974;2023-03-14T06:29:05;11.20;99.90
9971;DHT22;5026;51.494;11.974;2023-03-14T06:31:33;11.20;99.90
9971;DHT22;5026;51.494;11.974;2023-03-14T06:34:00;11.20;99.90
9971;DHT22;5026;51.494;11.974;2023-03-14T06:36:26;11.20;99.90
9971;DHT22;5026;51.494;11.974;2023-03-14T06:38:53;11.30;99.90
9971;DHT22;5026;51.494;11.974;2023-03-14T06:41:22;11.30;99.90
9971;DHT22;5026;51.494;11.974;2023-03-14T06:43:51;11.40;99.90
9971;DHT22;5026;51.494;11.974;2023-03-14T06:46:18;11.40;99.90
9971;DHT22;5026;51.494;11.974;2023-03-14T06:48:45;11.40;99.90
9971;DHT22;5026;51.494;11.974;2023-03-14T06:51:12;11.50;99.90
9971;DHT22;5026;51.494;11.974;2023-03-14T06:53:39;11.60;99.90
9971;DHT22;5026;51.494;11.974;2023-03-14T06:56:07;11.70;99.90
9971;DHT22;5026;51.494;11.974;2023-03-14T06:58:36;11.60;99.90
9971;DHT22;5026;51.494;11.974;2023-03-14T07:01:03;11.70;99.90
9971;DHT22;5026;51.494;11.974;2023-03-14T07:03:30;11.80;99.90
9971;DHT22;5026;51.494;11.974;2023-03-14T07:05:57;11.90;99.90
9971;DHT22;5026;51.494;11.974;2023-03-14T07:08:25;12.40;99.90
9971;DHT22;5026;51.494;11.974;2023-03-14T07:10:52;12.10;99.90
9971;DHT22;5026;51.494;11.974;2023-03-14T07:13:19;12.30;99.90
9971;DHT22;5026;51.494;11.974;2023-03-14T07:15:47;12.50;99.90
9971;DHT22;5026;51.494;11.974;2023-03-14T07:18:14;12.60;99.90
9971;DHT22;5026;51.494;11.974;2023-03-14T07:20:41;12.70;99.90
9971;DHT22;5026;51.494;11.974;2023-03-14T07:23:07;12.60;99.90
9971;DHT22;5026;51.494;11.974;2023-03-14T07:25:34;12.60;99.90
9971;DHT22;5026;51.494;11.974;2023-03-14T07:28:01;12.90;99.90
9971;DHT22;5026;51.494;11.974;2023-03-14T07:30:28;13.00;99.90
9971;DHT22;5026;51.494;11.974;2023-03-14T07:32:57;13.40;99.90
9971;DHT22;5026;51.494;11.974;2023-03-14T07:35:23;15.40;99.90
9971;DHT22;5026;51.494;11.974;2023-03-14T07:37:50;15.50;99.00
9971;DHT22;5026;51.494;11.974;2023-03-14T07:40:17;15.40;98.80
9971;DHT22;5026;51.494;11.974;2023-03-14T07:42:44;15.20;98.70
9971;DHT22;5026;51.494;11.974;2023-03-14T07:45:12;15.50;98.70
9971;DHT22;5026;51.494;11.974;2023-03-14T07:47:39;15.50;98.60
9971;DHT22;5026;51.494;11.974;2023-03-14T07:50:08;15.60;98.50
9971;DHT22;5026;51.494;11.974;2023-03-14T07:52:35;19.90;97.50
9971;DHT22;5026;51.494;11.974;2023-03-14T07:55:03;22.20;92.50
9971;DHT22;5026;51.494;11.974;2023-03-14T07:57:30;20.30;90.60
9971;DHT22;5026;51.494;11.974;2023-03-14T07:59:56;18.90;91.10
9971;DHT22;5026;51.494;11.974;2023-03-14T08:02:23;18.00;91.90
9971;DHT22;5026;51.494;11.974;2023-03-14T08:04:50;17.20;92.60
9971;DHT22;5026;51.494;11.974;2023-03-14T08:07:19;16.60;93.40
9971;DHT22;5026;51.494;11.974;2023-03-14T08:09:45;16.20;94.00
9971;DHT22;5026;51.494;11.974;2023-03-14T08:12:12;15.80;94.50
9971;DHT22;5026;51.494;11.974;2023-03-14T08:14:39;15.50;95.00
9971;DHT22;5026;51.494;11.974;2023-03-14T08:17:06;15.20;95.50
9971;DHT22;5026;51.494;11.974;2023-03-14T08:19:33;15.10;95.90
9971;DHT22;5026;51.494;11.974;2023-03-14T08:22:00;15.00;96.20
9971;DHT22;5026;51.494;11.974;2023-03-14T08:24:29;14.90;96.50
9971;DHT22;5026;51.494;11.974;2023-03-14T08:26:56;14.70;96.70
9971;DHT22;5026;51.494;11.974;2023-03-14T08:29:23;14.50;97.00
9971;DHT22;5026;51.494;11.974;2023-03-14T08:31:50;14.50;97.10
9971;DHT22;5026;51.494;11.974;2023-03-14T08:34:17;14.40;97.30
9971;DHT22;5026;51.494;11.974;2023-03-14T08:36:45;14.40;97.30
9971;DHT22;5026;51.494;11.974;2023-03-14T08:39:12;14.30;97.30
9971;DHT22;5026;51.494;11.974;2023-03-14T08:41:40;14.40;97.40
9971;DHT22;5026;51.494;11.974;2023-03-14T08:44:08;14.50;97.40
9971;DHT22;5026;51.494;11.974;2023-03-14T08:46:37;14.60;97.20
9971;DHT22;5026;51.494;11.974;2023-03-14T08:49:03;14.90;97.20
9971;DHT22;5026;51.494;11.974;2023-03-14T08:51:30;15.10;96.90
9971;DHT22;5026;51.494;11.974;2023-03-14T08:53:57;15.10;96.70
9971;DHT22;5026;51.494;11.974;2023-03-14T08:56:24;14.90;96.60
9971;DHT22;5026;51.494;11.974;2023-03-14T08:58:52;14.80;96.70
9971;DHT22;5026;51.494;11.974;2023-03-14T09:01:19;14.80;96.70
9971;DHT22;5026;51.494;11.974;2023-03-14T09:03:49;14.80;96.60
9971;DHT22;5026;51.494;11.974;2023-03-14T09:06:16;14.70;96.60
9971;DHT22;5026;51.494;11.974;2023-03-14T09:08:44;14.70;96.70
9971;DHT22;5026;51.494;11.974;2023-03-14T09:11:11;14.70;96.70
9971;DHT22;5026;51.494;11.974;2023-03-14T09:13:38;14.70;96.60
9971;DHT22;5026;51.494;11.974;2023-03-14T09:16:07;14.60;96.70
9971;DHT22;5026;51.494;11.974;2023-03-14T09:18:35;14.50;96.70
9971;DHT22;5026;51.494;11.974;2023-03-14T09:21:02;14.50;96.90
9971;DHT22;5026;51.494;11.974;2023-03-14T09:23:29;14.60;96.70
9971;DHT22;5026;51.494;11.974;2023-03-14T09:25:56;14.70;96.70
9971;DHT22;5026;51.494;11.974;2023-03-14T09:28:24;14.60;96.70
9971;DHT22;5026;51.494;11.974;2023-03-14T09:30:51;14.50;96.80
9971;DHT22;5026;51.494;11.974;2023-03-14T09:33:19;14.40;96.80
9971;DHT22;5026;51.494;11.974;2023-03-14T09:35:46;14.30;96.90
9971;DHT22;5026;51.494;11.974;2023-03-14T09:38:13;14.10;97.00
9971;DHT22;5026;51.494;11.974;2023-03-14T09:40:41;14.00;97.10
9971;DHT22;5026;51.494;11.974;2023-03-14T09:43:10;14.00;97.20
9971;DHT22;5026;51.494;11.974;2023-03-14T09:45:39;14.00;97.20
9971;DHT22;5026;51.494;11.974;2023-03-14T09:48:15;14.00;97.30
9971;DHT22;5026;51.494;11.974;2023-03-14T09:50:46;14.00;97.40
9971;DHT22;5026;51.494;11.974;2023-03-14T09:53:17;14.00;97.30
9971;DHT22;5026;51.494;11.974;2023-03-14T09:55:45;14.00;97.40
9971;DHT22;5026;51.494;11.974;2023-03-14T09:58:16;13.90;97.40
9971;DHT22;5026;51.494;11.974;2023-03-14T10:00:44;14.00;97.50
9971;DHT22;5026;51.494;11.974;2023-03-14T10:03:24;14.20;97.50
9971;DHT22;5026;51.494;11.974;2023-03-14T10:05:55;14.20;97.20
9971;DHT22;5026;51.494;11.974;2023-03-14T10:08:22;14.20;97.30
9971;DHT22;5026;51.494;11.974;2023-03-14T10:10:49;14.20;97.30
9971;DHT22;5026;51.494;11.974;2023-03-14T10:13:18;14.10;97.30
9971;DHT22;5026;51.494;11.974;2023-03-14T10:15:48;14.20;97.30
9971;DHT22;5026;51.494;11.974;2023-03-14T10:18:17;14.30;97.30
9971;DHT22;5026;51.494;11.974;2023-03-14T10:20:48;14.30;97.30
9971;DHT22;5026;51.494;11.974;2023-03-14T10:23:24;14.40;97.20
9971;DHT22;5026;51.494;11.974;2023-03-14T10:26:06;14.50;97.20
9971;DHT22;5026;51.494;11.974;2023-03-14T10:28:38;14.40;97.20
9971;DHT22;5026;51.494;11.974;2023-03-14T10:31:06;14.50;97.20
9971;DHT22;5026;51.494;11.974;2023-03-14T10:33:35;14.50;97.20
9971;DHT22;5026;51.494;11.974;2023-03-14T10:36:03;14.60;97.10
9971;DHT22;5026;51.494;11.974;2023-03-14T10:38:34;14.60;97.10
9971;DHT22;5026;51.494;11.974;2023-03-14T10:41:12;14.60;97.20
9971;DHT22;5026;51.494;11.974;2023-03-14T10:43:41;14.60;97.30
9971;DHT22;5026;51.494;11.974;2023-03-14T10:46:09;14.40;97.30
9971;DHT22;5026;51.494;11.974;2023-03-14T10:48:39;14.50;97.40
9971;DHT22;5026;51.494;11.974;2023-03-14T10:51:09;14.40;97.40
9971;DHT22;5026;51.494;11.974;2023-03-14T10:53:43;14.40;97.50
9971;DHT22;5026;51.494;11.974;2023-03-14T10:56:12;14.30;97.50
9971;DHT22;5026;51.494;11.974;2023-03-14T10:58:42;14.50;97.50
9971;DHT22;5026;51.494;11.974;2023-03-14T11:01:23;14.70;97.20
9971;DHT22;5026;51.494;11.974;2023-03-14T11:03:56;14.70;97.00
9971;DHT22;5026;51.494;11.974;2023-03-14T11:06:31;14.80;97.00
9971;DHT22;5026;51.494;11.974;2023-03-14T11:09:07;14.80;96.70
9971;DHT22;5026;51.494;11.974;2023-03-14T11:11:39;14.80;96.60
9971;DHT22;5026;51.494;11.974;2023-03-14T11:14:18;14.90;96.70
9971;DHT22;5026;51.494;11.974;2023-03-14T11:16:53;15.00;96.90
9971;DHT22;5026;51.494;11.974;2023-03-14T11:22:28;15.20;96.80
9971;DHT22;5026;51.494;11.974;2023-03-14T11:25:07;15.40;96.70
9971;DHT22;5026;51.494;11.974;2023-03-14T11:27:43;15.60;96.50
9971;DHT22;5026;51.494;11.974;2023-03-14T11:30:18;15.90;96.40
9971;DHT22;5026;51.494;11.974;2023-03-14T11:32:46;15.70;96.40
9971;DHT22;5026;51.494;11.974;2023-03-14T11:35:24;15.50;96.60
9971;DHT22;5026;51.494;11.974;2023-03-14T11:37:55;15.50;96.50
9971;DHT22;5026;51.494;11.974;2023-03-14T11:40:26;15.70;96.60
9971;DHT22;5026;51.494;11.974;2023-03-14T11:42:59;15.70;96.50
9971;DHT22;5026;51.494;11.974;2023-03-14T11:45:30;15.70;96.70
9971;DHT22;5026;51.494;11.974;2023-03-14T11:48:10;15.80;96.90
9971;DHT22;5026;51.494;11.974;2023-03-14T11:50:41;16.00;96.90
9971;DHT22;5026;51.494;11.974;2023-03-14T11:53:13;16.10;96.90
9971;DHT22;5026;51.494;11.974;2023-03-14T11:55:43;16.20;96.90
9971;DHT22;5026;51.494;11.974;2023-03-14T11:58:15;16.00;96.90
9971;DHT22;5026;51.494;11.974;2023-03-14T12:00:44;15.80;96.90
9971;DHT22;5026;51.494;11.974;2023-03-14T12:03:19;15.80;97.00
9971;DHT22;5026;51.494;11.974;2023-03-14T12:05:57;15.80;97.00
9971;DHT22;5026;51.494;11.974;2023-03-14T12:08:42;15.90;97.10
9971;DHT22;5026;51.494;11.974;2023-03-14T12:11:16;15.90;96.80
9971;DHT22;5026;51.494;11.974;2023-03-14T12:13:47;15.90;96.80
9971;DHT22;5026;51.494;11.974;2023-03-14T12:16:34;15.70;96.70
9971;DHT22;5026;51.494;11.974;2023-03-14T12:19:35;15.40;96.80
9971;DHT22;5026;51.494;11.974;2023-03-14T12:22:24;15.40;96.60
9971;DHT22;5026;51.494;11.974;2023-03-14T12:24:57;15.30;96.70
9971;DHT22;5026;51.494;11.974;2023-03-14T12:27:45;15.20;96.80
9971;DHT22;5026;51.494;11.974;2023-03-14T12:30:25;15.20;96.90
9971;DHT22;5026;51.494;11.974;2023-03-14T12:33:19;15.20;96.90
9971;DHT22;5026;51.494;11.974;2023-03-14T12:35:49;15.00;96.90
9971;DHT22;5026;51.494;11.974;2023-03-14T12:38:24;14.70;97.10
9971;DHT22;5026;51.494;11.974;2023-03-14T12:40:58;14.70;97.20
9971;DHT22;5026;51.494;11.974;2023-03-14T12:43:31;14.70;97.20
9971;DHT22;5026;51.494;11.974;2023-03-14T12:46:19;14.70;97.30
9971;DHT22;5026;51.494;11.974;2023-03-14T12:48:48;14.80;97.30
9971;DHT22;5026;51.494;11.974;2023-03-14T12:51:17;14.90;97.20
9971;DHT22;5026;51.494;11.974;2023-03-14T12:54:07;15.10;96.90
9971;DHT22;5026;51.494;11.974;2023-03-14T12:57:14;15.50;96.70
9971;DHT22;5026;51.494;11.974;2023-03-14T12:59:50;15.80;96.40
9971;DHT22;5026;51.494;11.974;2023-03-14T13:02:26;16.00;96.10
9971;DHT22;5026;51.494;11.974;2023-03-14T13:05:01;16.30;96.00
9971;DHT22;5026;51.494;11.974;2023-03-14T13:07:35;16.30;95.80
9971;DHT22;5026;51.494;11.974;2023-03-14T13:10:18;16.40;95.80
9971;DHT22;5026;51.494;11.974;2023-03-14T13:12:49;16.30;95.80
9971;DHT22;5026;51.494;11.974;2023-03-14T13:15:27;16.20;95.80
9971;DHT22;5026;51.494;11.974;2023-03-14T13:18:01;15.90;95.80
9971;DHT22;5026;51.494;11.974;2023-03-14T13:20:31;15.80;96.00
9971;DHT22;5026;51.494;11.974;2023-03-14T13:22:59;15.70;96.10
9971;DHT22;5026;51.494;11.974;2023-03-14T13:25:30;15.60;96.20
9971;DHT22;5026;51.494;11.974;2023-03-14T13:27:58;15.50;96.30
9971;DHT22;5026;51.494;11.974;2023-03-14T13:30:28;15.50;96.40
9971;DHT22;5026;51.494;11.974;2023-03-14T13:32:56;15.60;96.40
9971;DHT22;5026;51.494;11.974;2023-03-14T13:35:25;15.80;96.30
9971;DHT22;5026;51.494;11.974;2023-03-14T13:37:57;15.90;96.00
9971;DHT22;5026;51.494;11.974;2023-03-14T13:40:26;16.10;95.90
9971;DHT22;5026;51.494;11.974;2023-03-14T13:43:14;16.30;95.80
9971;DHT22;5026;51.494;11.974;2023-03-14T13:45:50;16.30;95.50
9971;DHT22;5026;51.494;11.974;2023-03-14T13:48:18;16.40;95.40
9971;DHT22;5026;51.494;11.974;2023-03-14T13:50:54;16.40;95.30
9971;DHT22;5026;51.494;11.974;2023-03-14T13:53:22;16.40;95.20
9971;DHT22;5026;51.494;11.974;2023-03-14T13:55:49;16.40;95.20
9971;DHT22;5026;51.494;11.974;2023-03-14T13:58:27;16.40;95.30
9971;DHT22;5026;51.494;11.974;2023-03-14T14:01:03;16.30;95.20
9971;DHT22;5026;51.494;11.974;2023-03-14T14:03:36;16.30;95.30
9971;DHT22;5026;51.494;11.974;2023-03-14T14:06:25;16.20;95.40
9971;DHT22;5026;51.494;11.974;2023-03-14T14:08:53;16.00;95.60
9971;DHT22;5026;51.494;11.974;2023-03-14T14:11:25;15.90;95.40
9971;DHT22;5026;51.494;11.974;2023-03-14T14:13:56;15.70;95.40
9971;DHT22;5026;51.494;11.974;2023-03-14T14:16:25;15.70;95.50
9971;DHT22;5026;51.494;11.974;2023-03-14T14:18:56;15.60;95.60
9971;DHT22;5026;51.494;11.974;2023-03-14T14:21:24;15.60;95.80
9971;DHT22;5026;51.494;11.974;2023-03-14T14:23:52;15.40;95.80
9971;DHT22;5026;51.494;11.974;2023-03-14T14:26:20;15.20;96.00
9971;DHT22;5026;51.494;11.974;2023-03-14T14:28:47;15.10;96.60
9971;DHT22;5026;51.494;11.974;2023-03-14T14:31:25;14.70;97.20
9971;DHT22;5026;51.494;11.974;2023-03-14T14:33:57;14.50;97.90
9971;DHT22;5026;51.494;11.974;2023-03-14T14:36:27;14.30;98.40
9971;DHT22;5026;51.494;11.974;2023-03-14T14:38:59;14.10;98.90
9971;DHT22;5026;51.494;11.974;2023-03-14T14:41:28;13.80;99.30
9971;DHT22;5026;51.494;11.974;2023-03-14T14:43:56;12.90;98.80
9971;DHT22;5026;51.494;11.974;2023-03-14T14:46:28;11.70;99.70
9971;DHT22;5026;51.494;11.974;2023-03-14T14:48:57;10.70;99.90
9971;DHT22;5026;51.494;11.974;2023-03-14T14:51:31;9.90;99.90
9971;DHT22;5026;51.494;11.974;2023-03-14T14:54:11;9.20;99.90
9971;DHT22;5026;51.494;11.974;2023-03-14T14:56:38;8.90;99.90
9971;DHT22;5026;51.494;11.974;2023-03-14T14:59:17;8.80;99.90
9971;DHT22;5026;51.494;11.974;2023-03-14T15:01:46;8.80;99.90
9971;DHT22;5026;51.494;11.974;2023-03-14T15:04:15;8.80;99.90
9971;DHT22;5026;51.494;11.974;2023-03-14T15:06:44;8.90;99.90
9971;DHT22;5026;51.494;11.974;2023-03-14T15:09:13;8.90;99.90
9971;DHT22;5026;51.494;11.974;2023-03-14T15:11:42;9.00;99.90
9971;DHT22;5026;51.494;11.974;2023-03-14T15:14:09;8.80;99.90
9971;DHT22;5026;51.494;11.974;2023-03-14T15:16:36;8.40;99.90
9971;DHT22;5026;51.494;11.974;2023-03-14T15:19:10;8.30;99.90
9971;DHT22;5026;51.494;11.974;2023-03-14T15:21:38;8.20;99.90
9971;DHT22;5026;51.494;11.974;2023-03-14T15:24:05;8.20;99.90
9971;DHT22;5026;51.494;11.974;2023-03-14T15:26:32;8.00;99.90
9971;DHT22;5026;51.494;11.974;2023-03-14T15:28:59;7.90;99.90
9971;DHT22;5026;51.494;11.974;2023-03-14T15:31:26;7.90;99.90
9971;DHT22;5026;51.494;11.974;2023-03-14T15:33:53;7.90;99.90
9971;DHT22;5026;51.494;11.974;2023-03-14T15:36:24;7.80;99.90
9971;DHT22;5026;51.494;11.974;2023-03-14T15:38:52;7.70;99.90
9971;DHT22;5026;51.494;11.974;2023-03-14T15:41:20;7.50;99.90
9971;DHT22;5026;51.494;11.974;2023-03-14T15:43:48;7.20;99.90
9971;DHT22;5026;51.494;11.974;2023-03-14T15:46:15;7.20;99.90
9971;DHT22;5026;51.494;11.974;2023-03-14T15:48:42;7.10;99.90
9971;DHT22;5026;51.494;11.974;2023-03-14T15:51:10;7.10;99.90
9971;DHT22;5026;51.494;11.974;2023-03-14T15:53:38;8.40;99.90
9971;DHT22;5026;51.494;11.974;2023-03-14T15:56:07;7.10;99.90
9971;DHT22;5026;51.494;11.974;2023-03-14T15:58:34;7.00;99.90
9971;DHT22;5026;51.494;11.974;2023-03-14T16:01:02;6.90;99.90
9971;DHT22;5026;51.494;11.974;2023-03-14T16:03:29;6.90;99.90
9971;DHT22;5026;51.494;11.974;2023-03-14T16:05:56;6.80;99.90